Time;durP1;ratioP1;P1;durP2;ratioP2;P2;SDS_P1;SDS_P2;PMS_P1;PMS_P2;Temp;Humidity;BMP_temperature;BMP_pressure;BME280_temperature;BME280_humidity;BME280_pressure;Samples;Min_cycle;Max_cycle;Signal;HPM_P1;HPM_P2
2021/01/05 00:01:36;;;;;;;22.73;13.50;;;3.50;85.50;;;;;;6249163;22;20354;-85
2021/01/05 00:04:02;;;;;;;21.83;14.07;;;3.50;85.50;;;;;;6249166;22;20004;-85
2021/01/05 00:06:28;;;;;;;22.30;13.77;;;3.50;85.40;;;;;;6276287;22;20023;-85
2021/01/05 00:08:53;;;;;;;23.93;14.20;;;3.50;85.20;;;;;;6248120;22;20026;-85
2021/01/05 00:11:19;;;;;;;23.57;14.13;;;3.50;85.60;;;;;;6276137;22;20003;-85
2021/01/05 00:13:45;;;;;;;22.23;13.83;;;3.50;85.30;;;;;;6248976;22;20039;-85
2021/01/05 00:16:10;;;;;;;23.40;14.50;;;3.60;85.50;;;;;;6249018;22;20011;-85
2021/01/05 00:18:36;;;;;;;23.47;14.27;;;3.50;85.50;;;;;;6248774;22;20077;-85
2021/01/05 00:21:01;;;;;;;23.73;14.17;;;3.50;85.50;;;;;;6275287;22;20067;-85
2021/01/05 00:23:27;;;;;;;24.17;15.03;;;3.50;85.60;;;;;;6248892;22;20108;-85
2021/01/05 00:25:53;;;;;;;24.83;14.90;;;3.50;85.60;;;;;;6249044;22;20087;-85
2021/01/05 00:28:18;;;;;;;24.23;15.27;;;3.50;85.60;;;;;;6248791;22;20042;-85
2021/01/05 00:30:44;;;;;;;25.33;15.30;;;3.50;85.60;;;;;;6275367;22;20049;-85
2021/01/05 00:33:10;;;;;;;25.13;15.07;;;3.50;85.70;;;;;;6248618;22;20004;-85
2021/01/05 00:35:38;;;;;;;26.97;15.93;;;3.60;85.40;;;;;;6276220;22;20007;-85
2021/01/05 00:38:08;;;;;;;23.63;14.50;;;3.50;85.10;;;;;;6276476;22;20070;-84
2021/01/05 00:40:35;;;;;;;24.60;14.93;;;3.60;85.40;;;;;;6275442;22;19999;-85
2021/01/05 00:43:01;;;;;;;24.97;14.73;;;3.50;85.50;;;;;;6248445;22;20015;-85
2021/01/05 00:45:32;;;;;;;27.37;15.80;;;3.50;85.50;;;;;;6248821;22;20451;-85
2021/01/05 00:47:58;;;;;;;26.70;14.73;;;3.50;85.40;;;;;;6276131;22;20004;-85
2021/01/05 00:50:24;;;;;;;24.47;15.00;;;3.50;85.30;;;;;;6248671;22;20003;-85
2021/01/05 00:52:50;;;;;;;25.80;15.30;;;3.50;85.30;;;;;;6248645;22;20338;-85
2021/01/05 00:55:16;;;;;;;27.57;15.80;;;3.50;85.00;;;;;;6248773;22;20050;-85
2021/01/05 00:57:43;;;;;;;26.77;15.37;;;3.40;85.30;;;;;;6275892;22;19999;-85
2021/01/05 01:00:16;;;;;;;26.83;15.93;;;3.50;85.50;;;;;;6247950;22;20334;-85
2021/01/05 01:02:41;;;;;;;24.83;15.57;;;3.40;85.20;;;;;;6248466;22;20510;-85
2021/01/05 01:05:08;;;;;;;25.00;15.77;;;3.50;85.30;;;;;;6248918;22;20015;-85
2021/01/05 01:07:34;;;;;;;25.53;15.43;;;3.50;85.60;;;;;;6248655;22;20007;-85
2021/01/05 01:09:59;;;;;;;25.63;15.50;;;3.50;85.40;;;;;;6248138;22;20467;-85
2021/01/05 01:12:25;;;;;;;27.63;15.70;;;3.50;85.30;;;;;;6248562;22;20073;-86
2021/01/05 01:14:54;;;;;;;28.57;16.50;;;3.50;85.10;;;;;;6249014;22;20031;-85
2021/01/05 01:17:22;;;;;;;25.38;15.70;;;3.50;85.30;;;;;;6275510;22;20010;-85
2021/01/05 01:19:47;;;;;;;26.77;15.93;;;3.50;85.20;;;;;;6247655;22;20066;-85
2021/01/05 01:22:16;;;;;;;26.37;15.83;;;3.50;85.10;;;;;;6248437;22;20338;-85
2021/01/05 01:24:42;;;;;;;25.83;15.85;;;3.50;85.20;;;;;;6248281;22;20015;-85
2021/01/05 01:27:07;;;;;;;27.73;16.07;;;3.50;85.10;;;;;;6248614;22;20004;-85
2021/01/05 01:29:33;;;;;;;25.07;15.20;;;3.50;84.90;;;;;;6247753;22;20361;-85
2021/01/05 01:31:58;;;;;;;25.07;15.57;;;3.50;85.10;;;;;;6275800;22;20045;-85
2021/01/05 01:34:26;;;;;;;26.17;15.57;;;3.50;84.80;;;;;;6248569;22;20307;-85
2021/01/05 01:37:00;;;;;;;25.43;15.37;;;3.50;85.20;;;;;;6248579;22;20000;-85
2021/01/05 01:39:28;;;;;;;25.67;15.30;;;3.50;85.00;;;;;;6275133;22;20507;-85
2021/01/05 01:41:54;;;;;;;25.60;15.60;;;3.50;85.00;;;;;;6248083;22;20030;-85
2021/01/05 01:44:26;;;;;;;23.67;14.50;;;3.50;85.00;;;;;;6248137;22;20030;-85
2021/01/05 01:46:55;;;;;;;25.90;15.33;;;3.50;85.10;;;;;;6276227;22;20190;-85
2021/01/05 01:49:21;;;;;;;26.08;14.60;;;3.50;84.90;;;;;;6275564;22;20004;-86
2021/01/05 01:51:47;;;;;;;25.93;15.53;;;3.50;85.00;;;;;;6248645;22;20008;-85
2021/01/05 01:54:19;;;;;;;27.27;15.57;;;3.50;85.00;;;;;;6248425;22;20051;-85
2021/01/05 01:57:01;;;;;;;29.70;16.93;;;3.50;85.10;;;;;;6248248;22;20004;-85
2021/01/05 01:59:59;;;;;;;29.63;16.37;;;3.50;85.00;;;;;;6247550;22;20092;-85
2021/01/05 02:02:57;;;;;;;29.33;16.10;;;3.50;84.90;;;;;;6275663;22;20461;-85
2021/01/05 02:06:02;;;;;;;28.27;16.77;;;3.50;85.00;;;;;;6275313;22;20450;-85
2021/01/05 02:08:53;;;;;;;29.30;17.17;;;3.50;84.90;;;;;;6192296;22;20010;-85
2021/01/05 02:11:40;;;;;;;26.63;16.60;;;3.50;85.00;;;;;;6275318;22;20334;-85
2021/01/05 02:14:22;;;;;;;29.90;16.57;;;3.50;85.10;;;;;;6275397;22;19995;-85
2021/01/05 02:17:19;;;;;;;28.73;16.90;;;3.50;85.40;;;;;;6275429;22;20003;-85
2021/01/05 02:19:53;;;;;;;26.67;15.77;;;3.50;86.00;;;;;;6247320;22;20054;-85
2021/01/05 02:22:34;;;;;;;28.87;17.10;;;3.50;85.50;;;;;;6248205;22;20010;-85
2021/01/05 02:25:12;;;;;;;29.37;17.10;;;3.50;85.50;;;;;;6248167;22;20058;-85
2021/01/05 02:27:49;;;;;;;28.23;16.23;;;3.50;85.40;;;;;;6248218;22;20007;-85
2021/01/05 02:30:20;;;;;;;26.63;16.10;;;3.50;86.00;;;;;;6247452;22;20434;-86
2021/01/05 02:32:57;;;;;;;26.97;15.73;;;3.50;85.70;;;;;;6275349;22;19999;-85
2021/01/05 02:36:00;;;;;;;27.43;15.63;;;3.50;85.60;;;;;;6248362;22;20445;-86
2021/01/05 02:39:01;;;;;;;28.33;15.50;;;3.50;85.40;;;;;;6248045;22;20038;-85
2021/01/05 02:41:54;;;;;;;28.33;15.30;;;3.50;85.80;;;;;;6247919;22;20433;-85
2021/01/05 02:44:43;;;;;;;27.53;15.63;;;3.50;85.60;;;;;;6247859;22;20011;-85
2021/01/05 02:47:52;;;;;;;32.03;18.00;;;3.50;85.70;;;;;;6248239;22;20054;-85
2021/01/05 02:50:50;;;;;;;28.70;15.93;;;3.40;85.80;;;;;;6247137;22;20035;-85
2021/01/05 02:53:59;;;;;;;28.23;15.70;;;3.50;85.80;;;;;;6275048;22;19999;-85
2021/01/05 02:56:36;;;;;;;30.40;15.40;;;3.50;85.50;;;;;;6276824;22;20026;-86
2021/01/05 02:59:21;;;;;;;27.93;15.67;;;3.50;85.60;;;;;;6249142;22;20007;-85
2021/01/05 03:02:14;;;;;;;28.23;16.30;;;3.50;85.90;;;;;;6277060;22;20466;-85
2021/01/05 03:04:40;;;;;;;30.47;15.73;;;3.50;85.80;;;;;;6250172;22;20023;-86
2021/01/05 03:07:18;;;;;;;26.97;15.30;;;3.40;85.90;;;;;;6277136;22;20329;-85
2021/01/05 03:10:08;;;;;;;28.93;15.90;;;3.40;86.60;;;;;;6249295;22;20345;-85
2021/01/05 03:12:54;;;;;;;28.30;15.63;;;3.50;85.60;;;;;;6249997;22;20086;-86
2021/01/05 03:15:32;;;;;;;28.20;15.37;;;3.50;85.90;;;;;;6250134;22;19999;-85
2021/01/05 03:18:07;;;;;;;26.90;15.13;;;3.50;85.80;;;;;;6249998;22;20041;-86
2021/01/05 03:20:38;;;;;;;25.97;15.10;;;3.50;85.70;;;;;;6248881;22;20003;-86
2021/01/05 03:23:07;;;;;;;26.57;14.47;;;3.50;85.80;;;;;;6249590;22;20011;-85
2021/01/05 03:25:36;;;;;;;27.83;15.15;;;3.50;85.50;;;;;;6250023;22;20091;-85
2021/01/05 03:28:05;;;;;;;26.10;14.82;;;3.50;85.70;;;;;;6249980;22;20031;-85
2021/01/05 03:30:47;;;;;;;26.92;14.75;;;3.50;85.60;;;;;;6248918;22;20007;-85
2021/01/05 03:33:13;;;;;;;26.13;14.27;;;3.50;85.60;;;;;;6249667;22;20000;-85
2021/01/05 03:35:39;;;;;;;27.63;14.67;;;3.50;85.70;;;;;;6249949;22;20004;-85
2021/01/05 03:38:04;;;;;;;27.50;15.23;;;3.40;85.60;;;;;;6249964;22;20011;-85
2021/01/05 03:40:30;;;;;;;29.57;15.87;;;3.40;85.60;;;;;;6248976;22;20382;-86
2021/01/05 03:42:56;;;;;;;27.67;15.47;;;3.50;85.30;;;;;;6276590;22;20004;-85
2021/01/05 03:45:30;;;;;;;27.67;15.13;;;3.50;85.00;;;;;;6249568;22;20004;-85
2021/01/05 03:47:57;;;;;;;28.37;15.20;;;3.40;85.20;;;;;;6249560;22;20004;-85
2021/01/05 03:50:23;;;;;;;28.33;15.17;;;3.50;85.90;;;;;;6248868;22;20127;-85
2021/01/05 03:52:49;;;;;;;28.17;15.20;;;3.50;85.10;;;;;;6276225;22;20003;-85
2021/01/05 03:55:16;;;;;;;28.00;14.70;;;3.50;85.10;;;;;;6249436;22;20003;-86
2021/01/05 03:57:42;;;;;;;26.67;14.40;;;3.40;85.00;;;;;;6249489;22;20090;-85
2021/01/05 04:00:12;;;;;;;28.83;15.10;;;3.50;85.00;;;;;;6275645;22;20315;-85
2021/01/05 04:02:38;;;;;;;28.07;14.97;;;3.50;84.80;;;;;;6274754;22;20082;-85
2021/01/05 04:05:05;;;;;;;28.77;15.33;;;3.50;85.00;;;;;;6275617;22;20008;-85
2021/01/05 04:07:30;;;;;;;27.10;14.87;;;3.40;84.90;;;;;;6249352;22;20338;-85
2021/01/05 04:09:56;;;;;;;27.67;15.37;;;3.50;85.10;;;;;;6248689;22;20007;-85
2021/01/05 04:12:22;;;;;;;27.10;15.17;;;3.50;85.00;;;;;;6276479;22;19996;-85
2021/01/05 04:14:47;;;;;;;27.77;15.43;;;3.50;84.90;;;;;;6249728;22;20003;-85
2021/01/05 04:17:13;;;;;;;30.40;15.97;;;3.40;84.80;;;;;;6276922;22;20038;-85
2021/01/05 04:19:39;;;;;;;30.60;16.60;;;3.40;85.20;;;;;;6249841;22;20470;-85
2021/01/05 04:22:05;;;;;;;32.40;16.57;;;3.40;85.20;;;;;;6250276;22;20038;-85
2021/01/05 04:24:30;;;;;;;31.63;16.27;;;3.40;85.40;;;;;;6259436;22;20047;-85
2021/01/05 04:26:56;;;;;;;34.53;17.03;;;3.40;85.50;;;;;;6303973;22;20015;-85
2021/01/05 04:29:22;;;;;;;31.00;16.17;;;3.40;85.30;;;;;;6276915;22;20023;-84
2021/01/05 04:31:47;;;;;;;30.10;15.43;;;3.40;85.40;;;;;;6277729;22;20015;-85
2021/01/05 04:34:15;;;;;;;29.70;15.50;;;3.40;85.40;;;;;;6277842;22;19992;-84
2021/01/05 04:36:41;;;;;;;28.87;15.70;;;3.40;85.40;;;;;;6304486;22;20043;-85
2021/01/05 04:39:08;;;;;;;32.10;16.83;;;3.50;85.20;;;;;;6264031;22;20007;-85
2021/01/05 04:41:47;;;;;;;29.47;16.53;;;3.50;85.30;;;;;;6249191;22;20427;-85
2021/01/05 04:44:15;;;;;;;27.93;15.47;;;3.50;85.30;;;;;;6249277;22;20402;-85
2021/01/05 04:46:46;;;;;;;30.17;16.40;;;3.50;85.10;;;;;;6248985;22;20411;-85
2021/01/05 04:49:15;;;;;;;29.50;15.93;;;3.50;85.20;;;;;;6248050;22;20092;-86
2021/01/05 04:51:55;;;;;;;29.55;15.68;;;3.50;85.40;;;;;;6248816;22;20004;-85
2021/01/05 04:54:36;;;;;;;30.80;15.57;;;3.50;85.30;;;;;;6248667;22;20082;-85
2021/01/05 04:57:01;;;;;;;29.97;16.37;;;3.50;85.10;;;;;;6248654;22;20050;-84
2021/01/05 04:59:36;;;;;;;28.47;15.73;;;3.40;86.10;;;;;;6248241;22;20015;-85
2021/01/05 05:02:02;;;;;;;29.87;16.40;;;3.40;85.40;;;;;;6275733;22;20031;-85
2021/01/05 05:04:39;;;;;;;28.20;16.10;;;3.40;85.40;;;;;;6248614;22;20010;-85
2021/01/05 05:07:38;;;;;;;27.27;15.13;;;3.40;85.40;;;;;;6248850;22;20003;-85
2021/01/05 05:10:17;;;;;;;29.73;16.23;;;3.40;85.50;;;;;;6247855;22;20003;-85
2021/01/05 05:13:04;;;;;;;26.77;15.05;;;3.40;85.30;;;;;;6248409;22;20004;-85
2021/01/05 05:15:48;;;;;;;33.17;16.87;;;3.50;85.40;;;;;;6248264;22;20340;-85
2021/01/05 05:18:46;;;;;;;29.33;15.40;;;3.40;85.40;;;;;;6248314;22;20000;-85
2021/01/05 05:21:47;;;;;;;27.70;15.80;;;3.40;85.40;;;;;;6247803;22;20053;-85
2021/01/05 05:24:54;;;;;;;27.83;15.53;;;3.40;85.30;;;;;;6252025;22;20018;-84
2021/01/05 05:27:27;;;;;;;29.60;15.70;;;3.40;85.40;;;;;;6171600;22;20377;-84
2021/01/05 05:29:59;;;;;;;29.07;15.60;;;3.50;85.60;;;;;;6253688;22;20003;-86
2021/01/05 05:32:47;;;;;;;32.10;16.63;;;3.40;85.60;;;;;;6253649;22;20004;-84
2021/01/05 05:35:31;;;;;;;28.70;15.70;;;3.50;85.60;;;;;;6281361;22;20450;-84
2021/01/05 05:38:03;;;;;;;29.60;16.10;;;3.50;85.60;;;;;;6253908;22;20124;-85
2021/01/05 05:40:38;;;;;;;28.73;15.40;;;3.50;85.40;;;;;;6281059;22;20006;-85
2021/01/05 05:43:24;;;;;;;28.57;15.57;;;3.50;85.70;;;;;;6254521;22;20017;-85
2021/01/05 05:45:56;;;;;;;30.90;16.47;;;3.50;85.70;;;;;;6254250;22;20038;-84
2021/01/05 05:48:40;;;;;;;30.87;17.13;;;3.50;85.70;;;;;;6254249;22;20069;-85
2021/01/05 05:51:08;;;;;;;30.10;15.60;;;3.50;85.80;;;;;;6254666;22;20346;-85
2021/01/05 05:53:43;;;;;;;28.97;15.87;;;3.50;85.50;;;;;;6254248;22;20004;-84
2021/01/05 05:56:15;;;;;;;30.47;16.03;;;3.50;85.70;;;;;;6281052;22;19996;-84
2021/01/05 05:58:56;;;;;;;28.93;16.53;;;3.50;85.50;;;;;;6253066;22;20003;-84
2021/01/05 06:01:34;;;;;;;31.20;16.47;;;3.50;85.50;;;;;;6254326;22;20418;-84
2021/01/05 06:04:00;;;;;;;30.07;16.00;;;3.50;85.60;;;;;;6252850;22;20012;-84
2021/01/05 06:06:28;;;;;;;32.70;17.23;;;3.50;85.80;;;;;;6253726;22;20008;-85
2021/01/05 06:08:54;;;;;;;31.57;16.17;;;3.50;86.00;;;;;;6253350;22;20008;-84
2021/01/05 06:11:19;;;;;;;32.10;16.57;;;3.50;85.80;;;;;;6280507;22;20000;-84
2021/01/05 06:13:45;;;;;;;30.60;16.33;;;3.50;85.70;;;;;;6254299;22;20031;-84
2021/01/05 06:16:11;;;;;;;30.03;16.10;;;3.50;86.50;;;;;;6254141;22;20031;-84
2021/01/05 06:18:37;;;;;;;31.33;16.80;;;3.50;85.70;;;;;;6254454;22;20007;-84
2021/01/05 06:21:02;;;;;;;32.73;16.57;;;3.50;85.50;;;;;;6256852;22;20015;-87
2021/01/05 06:23:28;;;;;;;34.03;16.43;;;3.50;85.90;;;;;;6256862;22;20083;-85
2021/01/05 06:25:54;;;;;;;30.47;15.40;;;3.50;85.90;;;;;;6257478;22;20008;-85
2021/01/05 06:28:19;;;;;;;34.63;17.07;;;3.50;85.70;;;;;;6259082;22;20031;-86
2021/01/05 06:31:12;;;;;;;32.93;16.67;;;3.40;86.40;;;;;;6259220;22;19999;-84
2021/01/05 06:34:10;;;;;;;32.53;16.67;;;3.50;86.20;;;;;;6279379;22;20066;-86
2021/01/05 06:37:49;;;;;;;30.03;16.47;;;3.50;86.10;;;;;;6284972;22;20000;-84
2021/01/05 06:41:18;;;;;;;30.70;15.93;;;3.50;85.90;;;;;;6266466;22;20043;-87
2021/01/05 06:48:24;;;;;;;30.23;15.43;;;3.50;86.00;;;;;;6190131;23;20150;-84
2021/01/05 06:52:11;;;;;;;32.67;15.93;;;3.50;85.80;;;;;;6119696;23;20001;-84
2021/01/05 06:55:05;;;;;;;31.60;15.67;;;3.50;85.40;;;;;;6172677;23;20423;-86
2021/01/05 06:57:36;;;;;;;31.33;15.50;;;3.50;85.60;;;;;;6145242;23;20076;-86
2021/01/05 07:00:05;;;;;;;32.97;15.90;;;3.50;85.80;;;;;;6261430;22;20000;-87
2021/01/05 07:02:30;;;;;;;31.20;15.70;;;3.50;85.80;;;;;;6266117;22;20026;-86
2021/01/05 07:04:56;;;;;;;32.27;16.00;;;3.60;85.80;;;;;;6264914;22;20051;-87
2021/01/05 07:07:21;;;;;;;30.53;16.67;;;3.60;85.60;;;;;;6290545;22;19996;-85
2021/01/05 07:09:47;;;;;;;35.20;18.40;;;3.60;85.70;;;;;;6263478;22;20460;-87
2021/01/05 07:12:13;;;;;;;37.83;19.03;;;3.60;85.50;;;;;;6265224;22;20053;-85
2021/01/05 07:14:38;;;;;;;30.70;17.03;;;3.60;85.50;;;;;;6291072;22;20011;-86
2021/01/05 07:17:04;;;;;;;33.80;16.63;;;3.60;85.80;;;;;;6290582;22;20003;-86
2021/01/05 07:19:29;;;;;;;34.80;17.83;;;3.60;85.40;;;;;;6262293;22;20019;-87
2021/01/05 07:21:55;;;;;;;37.43;18.53;;;3.60;85.40;;;;;;6262835;22;20004;-86
2021/01/05 07:24:21;;;;;;;35.93;17.50;;;3.50;85.60;;;;;;6262782;22;20012;-85
2021/01/05 07:26:49;;;;;;;32.00;17.70;;;3.60;86.00;;;;;;6261670;22;20084;-86
2021/01/05 07:29:18;;;;;;;39.93;19.10;;;3.60;85.80;;;;;;6262261;22;20064;-85
2021/01/05 07:31:44;;;;;;;38.90;19.55;;;3.60;85.80;;;;;;6262107;22;20006;-85
2021/01/05 07:34:11;;;;;;;34.00;17.63;;;3.60;85.70;;;;;;6289638;22;19996;-84
2021/01/05 07:36:41;;;;;;;38.07;17.83;;;3.60;85.80;;;;;;6289460;22;20004;-85
2021/01/05 07:39:31;;;;;;;33.23;17.13;;;3.50;85.90;;;;;;6260290;22;20008;-84
2021/01/05 07:42:17;;;;;;;35.35;17.45;;;3.60;85.80;;;;;;6289484;22;20055;-87
2021/01/05 07:44:44;;;;;;;36.47;18.27;;;3.50;86.10;;;;;;6262724;22;20011;-87
2021/01/05 07:47:10;;;;;;;37.60;18.43;;;3.60;85.80;;;;;;6263141;22;20000;-85
2021/01/05 07:49:36;;;;;;;37.27;19.20;;;3.50;86.00;;;;;;6289992;22;19996;-85
2021/01/05 07:52:15;;;;;;;37.23;18.50;;;3.60;86.00;;;;;;6289859;22;19996;-86
2021/01/05 07:54:40;;;;;;;36.10;18.15;;;3.60;86.70;;;;;;6290283;22;19999;-87
2021/01/05 07:57:06;;;;;;;36.80;18.00;;;3.60;86.30;;;;;;6263270;22;20004;-85
2021/01/05 07:59:31;;;;;;;39.37;19.13;;;3.50;86.10;;;;;;6263349;22;20466;-85
2021/01/05 08:01:57;;;;;;;39.70;20.07;;;3.50;86.50;;;;;;6263959;22;20007;-87
2021/01/05 08:04:22;;;;;;;39.43;18.80;;;3.50;87.10;;;;;;6264288;22;20003;-87
2021/01/05 08:06:49;;;;;;;38.60;19.77;;;3.50;87.00;;;;;;6262579;22;20027;-85
2021/01/05 08:09:14;;;;;;;39.17;19.53;;;3.50;86.80;;;;;;6252913;22;20004;-86
2021/01/05 08:11:40;;;;;;;39.53;19.97;;;3.40;87.20;;;;;;6251420;22;20006;-86
2021/01/05 08:14:06;;;;;;;38.53;18.50;;;3.50;87.20;;;;;;6250290;22;20073;-85
2021/01/05 08:16:32;;;;;;;40.20;19.60;;;3.40;87.20;;;;;;6276434;22;19996;-85
2021/01/05 08:18:58;;;;;;;37.70;19.60;;;3.40;87.30;;;;;;6248812;22;20008;-85
2021/01/05 08:21:25;;;;;;;38.47;19.40;;;3.40;87.10;;;;;;6249377;22;19999;-86
2021/01/05 08:23:50;;;;;;;37.07;18.80;;;3.50;87.10;;;;;;6276321;22;20032;-85
2021/01/05 08:26:16;;;;;;;39.97;19.07;;;3.50;86.90;;;;;;6276764;22;20026;-85
2021/01/05 08:28:42;;;;;;;41.47;19.67;;;3.50;87.10;;;;;;6249012;22;20447;-85
2021/01/05 08:31:08;;;;;;;40.93;19.50;;;3.50;87.00;;;;;;6248701;22;19999;-85
2021/01/05 08:33:33;;;;;;;35.57;18.27;;;3.50;87.00;;;;;;6248924;22;20003;-85
2021/01/05 08:35:59;;;;;;;40.80;19.53;;;3.50;86.90;;;;;;6249181;22;20033;-85
2021/01/05 08:38:25;;;;;;;38.63;18.53;;;3.50;86.80;;;;;;6276112;22;20014;-85
2021/01/05 08:40:51;;;;;;;43.43;19.70;;;3.50;86.90;;;;;;6275673;22;20031;-85
2021/01/05 08:43:16;;;;;;;38.43;18.70;;;3.60;86.90;;;;;;6249344;22;20634;-85
2021/01/05 08:45:42;;;;;;;41.53;19.57;;;3.60;86.90;;;;;;6277328;22;20014;-87
2021/01/05 08:48:09;;;;;;;45.00;19.57;;;3.60;86.70;;;;;;6250007;22;20057;-85
2021/01/05 08:50:34;;;;;;;41.77;20.07;;;3.50;86.90;;;;;;6248761;22;20511;-85
2021/01/05 08:53:03;;;;;;;44.20;19.90;;;3.50;87.20;;;;;;6248823;22;20004;-85
2021/01/05 08:55:29;;;;;;;39.55;19.17;;;3.50;87.20;;;;;;6277020;22;19999;-85
2021/01/05 08:57:55;;;;;;;41.63;19.37;;;3.50;87.20;;;;;;6277022;22;20083;-85
2021/01/05 09:00:22;;;;;;;41.10;19.13;;;3.50;87.00;;;;;;6249264;22;20011;-85
2021/01/05 09:02:47;;;;;;;45.27;20.50;;;3.60;87.10;;;;;;6248937;22;20132;-85
2021/01/05 09:05:13;;;;;;;38.83;18.67;;;3.50;87.10;;;;;;6248552;22;20011;-85
2021/01/05 09:07:39;;;;;;;43.50;19.57;;;3.50;86.90;;;;;;6248591;22;20010;-85
2021/01/05 09:10:07;;;;;;;37.37;18.13;;;3.50;86.80;;;;;;6248201;22;20004;-85
2021/01/05 09:12:34;;;;;;;39.73;18.50;;;3.60;87.10;;;;;;6248762;22;20078;-85
2021/01/05 09:15:01;;;;;;;39.07;17.87;;;3.60;86.60;;;;;;6248509;22;20004;-86
2021/01/05 09:17:26;;;;;;;37.63;18.40;;;3.60;86.60;;;;;;6275616;22;20074;-86
2021/01/05 09:19:52;;;;;;;39.90;19.27;;;3.60;86.70;;;;;;6248076;22;20141;-85
2021/01/05 09:22:22;;;;;;;42.60;18.50;;;3.70;86.70;;;;;;6248575;22;20015;-86
2021/01/05 09:24:48;;;;;;;39.63;18.33;;;3.70;86.90;;;;;;6248258;22;20038;-85
2021/01/05 09:27:14;;;;;;;42.33;20.73;;;3.70;86.70;;;;;;6248434;22;20087;-85
2021/01/05 09:29:40;;;;;;;40.90;18.87;;;3.70;86.80;;;;;;6248025;22;20316;-85
2021/01/05 09:32:06;;;;;;;43.53;20.17;;;3.70;86.90;;;;;;6248273;22;20000;-85
2021/01/05 09:34:31;;;;;;;44.33;20.17;;;3.70;86.90;;;;;;6248408;22;20074;-85
2021/01/05 09:36:57;;;;;;;39.43;18.77;;;3.60;86.70;;;;;;6248393;22;20086;-85
2021/01/05 09:39:24;;;;;;;37.97;19.77;;;3.60;87.10;;;;;;6247527;22;20015;-85
2021/01/05 09:41:56;;;;;;;39.53;18.40;;;3.60;86.80;;;;;;6248290;22;20007;-86
2021/01/05 09:44:22;;;;;;;37.43;17.97;;;3.60;87.00;;;;;;6275368;22;20007;-85
2021/01/05 09:46:53;;;;;;;39.33;18.63;;;3.60;87.60;;;;;;6248421;22;20003;-85
2021/01/05 09:49:19;;;;;;;41.70;19.30;;;3.60;87.10;;;;;;6274770;22;20003;-85
2021/01/05 09:51:44;;;;;;;43.40;18.63;;;3.60;87.00;;;;;;6275787;22;20422;-85
2021/01/05 09:54:15;;;;;;;39.47;18.47;;;3.60;86.90;;;;;;6248198;22;20424;-85
2021/01/05 09:56:41;;;;;;;43.37;19.37;;;3.70;87.00;;;;;;6248421;22;20028;-85
2021/01/05 09:59:06;;;;;;;42.67;18.97;;;3.70;86.80;;;;;;6248179;22;20007;-85
2021/01/05 10:01:33;;;;;;;37.47;18.10;;;3.70;86.90;;;;;;6248018;22;20014;-85
2021/01/05 10:03:59;;;;;;;41.00;18.43;;;3.70;86.70;;;;;;6248003;22;20004;-85
2021/01/05 10:06:30;;;;;;;41.23;18.53;;;3.70;86.90;;;;;;6275214;22;20010;-86
2021/01/05 10:08:55;;;;;;;39.33;18.10;;;3.70;86.70;;;;;;6275627;22;19999;-86
2021/01/05 10:11:21;;;;;;;43.87;19.53;;;3.70;86.70;;;;;;6248054;22;20003;-85
2021/01/05 10:13:47;;;;;;;41.03;19.50;;;3.60;86.70;;;;;;6248714;22;20011;-85
2021/01/05 10:16:13;;;;;;;39.87;19.00;;;3.60;86.70;;;;;;6254468;22;20041;-86
2021/01/05 10:18:39;;;;;;;40.77;19.20;;;3.60;87.00;;;;;;6280864;22;19991;-86
2021/01/05 10:21:05;;;;;;;39.60;19.33;;;3.60;87.30;;;;;;6252736;22;20462;-86
2021/01/05 10:23:31;;;;;;;38.33;19.33;;;3.60;87.30;;;;;;6253210;22;20015;-85
2021/01/05 10:25:56;;;;;;;41.33;19.50;;;3.60;87.30;;;;;;6253240;22;20504;-86
2021/01/05 10:28:22;;;;;;;45.40;21.50;;;3.70;87.50;;;;;;6280853;22;20043;-86
2021/01/05 10:30:48;;;;;;;42.60;19.17;;;3.50;87.60;;;;;;6253172;22;20027;-85
2021/01/05 10:33:13;;;;;;;47.23;21.00;;;3.50;87.80;;;;;;6247868;22;20175;-86
2021/01/05 10:35:39;;;;;;;44.57;19.80;;;3.50;88.30;;;;;;6247990;22;20000;-85
2021/01/05 10:38:04;;;;;;;45.10;19.87;;;3.50;87.60;;;;;;6275340;22;20031;-86
2021/01/05 10:40:30;;;;;;;43.73;19.67;;;3.50;88.10;;;;;;6247498;22;20030;-85
2021/01/05 10:42:57;;;;;;;41.20;19.53;;;3.60;87.90;;;;;;6248155;22;20011;-85
2021/01/05 10:45:29;;;;;;;42.83;19.10;;;3.60;87.60;;;;;;6248091;22;20034;-86
2021/01/05 10:47:54;;;;;;;40.57;19.43;;;3.70;87.40;;;;;;6275286;22;20006;-86
2021/01/05 10:50:23;;;;;;;40.83;18.63;;;3.70;87.10;;;;;;6248371;22;20342;-86
2021/01/05 10:52:50;;;;;;;39.80;18.87;;;3.70;87.30;;;;;;6248136;22;20058;-86
2021/01/05 10:55:17;;;;;;;38.63;18.57;;;3.70;87.10;;;;;;6248058;22;20049;-85
2021/01/05 10:57:43;;;;;;;43.50;19.70;;;3.70;87.00;;;;;;6248022;22;20315;-85
2021/01/05 11:00:10;;;;;;;41.30;19.57;;;3.70;86.70;;;;;;6247348;22;20010;-86
2021/01/05 11:02:35;;;;;;;42.10;19.33;;;3.70;86.90;;;;;;6248060;22;20106;-85
2021/01/05 11:05:01;;;;;;;39.77;18.67;;;3.70;87.00;;;;;;6248385;22;20443;-86
2021/01/05 11:07:27;;;;;;;40.20;19.13;;;3.80;87.00;;;;;;6249016;22;20015;-86
2021/01/05 11:09:52;;;;;;;38.10;18.53;;;3.80;86.90;;;;;;6247543;22;20092;-87
2021/01/05 11:12:25;;;;;;;38.53;18.73;;;3.80;86.80;;;;;;6247857;22;20026;-86
2021/01/05 11:14:51;;;;;;;42.73;19.57;;;3.80;87.10;;;;;;6248566;22;20000;-86
2021/01/05 11:17:17;;;;;;;43.17;19.10;;;3.80;87.10;;;;;;6249937;22;20008;-86
2021/01/05 11:19:44;;;;;;;38.70;18.50;;;3.80;87.10;;;;;;6248966;22;20008;-86
2021/01/05 11:22:14;;;;;;;40.73;19.67;;;3.80;87.00;;;;;;6276701;22;20057;-86
2021/01/05 11:24:40;;;;;;;40.72;18.88;;;3.80;87.30;;;;;;6275425;22;20097;-86
2021/01/05 11:27:06;;;;;;;40.20;18.53;;;3.80;87.80;;;;;;6276670;22;20422;-87
2021/01/05 11:29:33;;;;;;;41.77;19.90;;;3.80;87.50;;;;;;6250004;22;20003;-86
2021/01/05 11:32:05;;;;;;;38.60;18.87;;;3.80;86.70;;;;;;6252229;22;20000;-86
2021/01/05 11:34:31;;;;;;;38.57;18.83;;;3.80;86.70;;;;;;6232077;23;19996;-85
2021/01/05 11:37:05;;;;;;;37.63;18.03;;;3.80;86.90;;;;;;6248993;23;20423;-86
2021/01/05 11:39:31;;;;;;;37.17;18.70;;;3.80;86.80;;;;;;6218253;23;20004;-85
2021/01/05 11:42:02;;;;;;;38.47;18.07;;;3.80;86.80;;;;;;6218655;23;20015;-86
2021/01/05 11:44:28;;;;;;;38.93;18.27;;;3.80;87.00;;;;;;6245666;22;20004;-86
2021/01/05 11:46:54;;;;;;;35.43;17.83;;;3.80;87.00;;;;;;6218764;23;20000;-86
2021/01/05 11:49:20;;;;;;;33.27;16.53;;;3.90;87.30;;;;;;6244957;23;20004;-86
2021/01/05 11:51:50;;;;;;;37.13;18.00;;;3.90;87.30;;;;;;6245396;23;20331;-86
2021/01/05 11:54:16;;;;;;;;;;;3.80;86.90;;;;;;6246021;22;20351;-86
2021/01/05 11:56:41;;;;;;;37.97;16.73;;;3.80;87.00;;;;;;6218628;23;19904;-86
2021/01/05 11:59:07;;;;;;;39.70;17.50;;;3.80;87.00;;;;;;6217959;23;20496;-86
2021/01/05 12:01:36;;;;;;;38.03;17.47;;;3.80;87.30;;;;;;6245502;23;20127;-86
2021/01/05 12:04:07;;;;;;;39.45;18.35;;;3.80;86.90;;;;;;6218534;23;20008;-86
2021/01/05 12:06:32;;;;;;;36.67;17.40;;;3.80;87.10;;;;;;6218302;23;20035;-86
2021/01/05 12:08:58;;;;;;;39.17;18.03;;;3.80;87.10;;;;;;6244675;23;20004;-86
2021/01/05 12:11:35;;;;;;;36.90;17.27;;;3.80;87.20;;;;;;6245462;23;20004;-86
2021/01/05 12:14:02;;;;;;;36.80;16.73;;;3.80;86.90;;;;;;6218496;23;20004;-86
2021/01/05 12:16:29;;;;;;;31.20;16.47;;;3.70;87.40;;;;;;6219103;23;20489;-86
2021/01/05 12:18:56;;;;;;;37.93;16.90;;;3.80;87.90;;;;;;6221801;23;20011;-86
2021/01/05 12:21:30;;;;;;;33.43;16.80;;;3.70;87.60;;;;;;6248960;22;20030;-86
2021/01/05 12:23:56;;;;;;;33.07;16.37;;;3.70;87.60;;;;;;6249274;23;20036;-86
2021/01/05 12:26:30;;;;;;;31.70;16.57;;;3.70;88.10;;;;;;6224048;23;20004;-86
2021/01/05 12:28:58;;;;;;;34.97;17.30;;;3.70;88.00;;;;;;6219800;23;20457;-87
2021/01/05 12:31:24;;;;;;;36.80;17.13;;;3.70;87.90;;;;;;6218727;23;20007;-86
2021/01/05 12:33:50;;;;;;;33.73;16.80;;;3.70;88.50;;;;;;6218546;23;20018;-86
2021/01/05 12:36:32;;;;;;;35.37;16.77;;;3.70;87.90;;;;;;6245441;23;20003;-87
2021/01/05 12:38:58;;;;;;;36.00;17.80;;;3.80;87.60;;;;;;6217947;23;20011;-86
2021/01/05 12:41:33;;;;;;;36.43;17.40;;;3.70;88.20;;;;;;6218503;23;20439;-86
2021/01/05 12:44:00;;;;;;;32.33;16.67;;;3.70;88.10;;;;;;6245118;22;20011;-86
2021/01/05 12:46:29;;;;;;;34.20;18.07;;;3.60;88.10;;;;;;6245111;23;20024;-86
2021/01/05 12:48:55;;;;;;;37.10;18.65;;;3.60;88.70;;;;;;6217477;23;20061;-86
2021/01/05 12:51:29;;;;;;;38.20;18.27;;;3.60;88.80;;;;;;6218368;23;20279;-86
2021/01/05 12:53:55;;;;;;;37.37;18.17;;;3.60;89.10;;;;;;6243491;22;20032;-86
2021/01/05 12:56:21;;;;;;;35.27;18.17;;;3.70;88.50;;;;;;6218687;23;20027;-85
2021/01/05 12:58:47;;;;;;;36.07;17.10;;;3.70;88.40;;;;;;6220474;23;20004;-86
2021/01/05 13:01:15;;;;;;;37.47;18.13;;;3.70;88.40;;;;;;6219769;23;20008;-86
2021/01/05 13:03:41;;;;;;;36.90;18.27;;;3.70;88.70;;;;;;6247333;22;20453;-86